Time;durP1;ratioP1;P1;durP2;ratioP2;P2;SDS_P1;SDS_P2;PMS_P1;PMS_P2;Temp;Humidity;BMP_temperature;BMP_pressure;BME280_temperature;BME280_humidity;BME280_pressure;Samples;Min_cycle;Max_cycle;Signal;HPM_P1;HPM_P2
2022/09/03 00:00:51;;;;;;;4.05;1.90;;;;;;;;;;5033192;28;20071;-66
2022/09/03 00:03:28;;;;;;;6.20;2.30;;;;;;;;;;5033283;28;20476;-65
2022/09/03 00:06:30;;;;;;;4.15;2.00;;;;;;;;;;5032958;28;20029;-68
2022/09/03 00:09:16;;;;;;;4.82;2.13;;;;;;;;;;5033112;28;20029;-68
2022/09/03 00:11:54;;;;;;;4.57;2.50;;;;;;;;;;5033109;28;20032;-67
2022/09/03 00:14:27;;;;;;;4.70;2.30;;;;;;;;;;5033189;28;20053;-67
2022/09/03 00:17:01;;;;;;;7.93;2.10;;;;;;;;;;5033087;28;20036;-68
2022/09/03 00:19:37;;;;;;;4.35;2.03;;;;;;;;;;5033218;28;20356;-68
2022/09/03 00:22:10;;;;;;;3.60;1.50;;;;;;;;;;5032883;28;20017;-69
2022/09/03 00:24:39;;;;;;;8.32;2.25;;;;;;;;;;5032924;28;20036;-69
2022/09/03 00:27:15;;;;;;;5.60;1.97;;;;;;;;;;5032806;28;20480;-68
2022/09/03 00:30:01;;;;;;;5.25;2.22;;;;;;;;;;5032447;28;20108;-67
2022/09/03 00:32:41;;;;;;;4.25;2.00;;;;;;;;;;5032788;28;20022;-67
2022/09/03 00:35:16;;;;;;;4.72;1.70;;;;;;;;;;5032554;28;20026;-68
2022/09/03 00:37:43;;;;;;;3.58;1.95;;;;;;;;;;5032832;28;20481;-66
2022/09/03 00:40:44;;;;;;;4.05;1.85;;;;;;;;;;5033074;28;20344;-67
2022/09/03 00:43:31;;;;;;;3.22;1.70;;;;;;;;;;5039083;28;20036;-68
2022/09/03 00:46:04;;;;;;;4.05;1.70;;;;;;;;;;5033796;28;20043;-68
2022/09/03 00:48:36;;;;;;;4.90;1.85;;;;;;;;;;5032735;28;20030;-67
2022/09/03 00:51:13;;;;;;;3.85;1.85;;;;;;;;;;5032939;28;20087;-66
2022/09/03 00:53:50;;;;;;;3.97;1.95;;;;;;;;;;5032825;28;20030;-69
2022/09/03 00:56:33;;;;;;;6.80;2.15;;;;;;;;;;5032718;28;20116;-64
2022/09/03 00:59:28;;;;;;;4.28;1.92;;;;;;;;;;5032815;28;20060;-68
2022/09/03 01:02:50;;;;;;;6.88;1.70;;;;;;;;;;5010565;28;20034;-67
2022/09/03 01:05:47;;;;;;;4.43;1.80;;;;;;;;;;4952226;29;20122;-69
2022/09/03 01:08:15;;;;;;;5.47;2.08;;;;;;;;;;4952626;29;20452;-68
2022/09/03 01:11:09;;;;;;;3.55;1.90;;;;;;;;;;4952530;29;20114;-64
2022/09/03 01:13:40;;;;;;;5.30;1.88;;;;;;;;;;4952259;29;20035;-67
2022/09/03 01:16:30;;;;;;;4.70;1.95;;;;;;;;;;4952709;29;20136;-68
2022/09/03 01:19:07;;;;;;;5.72;1.70;;;;;;;;;;4937222;29;20458;-68
2022/09/03 01:21:58;;;;;;;4.65;1.77;;;;;;;;;;4940432;29;20438;-67
2022/09/03 01:24:46;;;;;;;5.28;2.00;;;;;;;;;;4956418;29;20035;-68
2022/09/03 01:27:20;;;;;;;2.92;1.67;;;;;;;;;;4956280;29;20471;-69
2022/09/03 01:30:14;;;;;;;4.45;1.75;;;;;;;;;;4956313;29;20035;-67
2022/09/03 01:33:12;;;;;;;6.25;1.90;;;;;;;;;;4955981;29;20043;-69
2022/09/03 01:35:38;;;;;;;3.25;1.77;;;;;;;;;;4956191;29;20047;-67
2022/09/03 01:38:14;;;;;;;5.65;2.15;;;;;;;;;;4958345;28;20031;-66
2022/09/03 01:40:49;;;;;;;3.63;1.90;;;;;;;;;;5036475;28;20373;-69
2022/09/03 01:43:14;;;;;;;4.80;1.88;;;;;;;;;;5043492;28;20488;-67
2022/09/03 01:45:53;;;;;;;3.83;1.70;;;;;;;;;;5039349;28;20099;-65
2022/09/03 01:48:29;;;;;;;4.53;2.20;;;;;;;;;;5036089;28;20036;-69
2022/09/03 01:51:16;;;;;;;4.53;1.83;;;;;;;;;;5036262;28;20427;-69
2022/09/03 01:53:56;;;;;;;5.47;1.95;;;;;;;;;;5035916;28;20056;-63
2022/09/03 01:56:39;;;;;;;5.77;1.80;;;;;;;;;;5036172;28;20029;-67
2022/09/03 01:59:17;;;;;;;5.30;1.70;;;;;;;;;;5036072;28;20492;-63
2022/09/03 02:01:47;;;;;;;6.70;2.15;;;;;;;;;;5035626;28;20038;-68
2022/09/03 02:04:19;;;;;;;4.45;1.70;;;;;;;;;;5035804;28;20040;-68
2022/09/03 02:06:47;;;;;;;2.92;1.63;;;;;;;;;;5035954;28;20590;-67
2022/09/03 02:09:14;;;;;;;3.63;1.80;;;;;;;;;;5035935;28;20021;-63
2022/09/03 02:11:41;;;;;;;3.00;1.63;;;;;;;;;;5035754;28;20022;-66
2022/09/03 02:14:07;;;;;;;4.65;1.90;;;;;;;;;;5035522;28;20022;-66
2022/09/03 02:16:34;;;;;;;5.60;2.10;;;;;;;;;;5035550;28;20036;-65
2022/09/03 02:19:06;;;;;;;3.60;1.65;;;;;;;;;;5035586;28;20027;-67
2022/09/03 02:21:35;;;;;;;3.72;1.60;;;;;;;;;;5035661;28;20030;-65
2022/09/03 02:24:04;;;;;;;5.45;1.90;;;;;;;;;;5035599;28;20104;-65
2022/09/03 02:26:29;;;;;;;3.78;1.70;;;;;;;;;;5035434;28;20057;-66
2022/09/03 02:28:56;;;;;;;7.22;2.05;;;;;;;;;;5035515;28;20029;-64
2022/09/03 02:31:22;;;;;;;5.10;2.28;;;;;;;;;;5033987;28;20034;-65
2022/09/03 02:33:49;;;;;;;5.15;1.83;;;;;;;;;;5035369;28;20029;-63
2022/09/03 02:36:19;;;;;;;3.67;1.85;;;;;;;;;;5035497;28;20114;-67
2022/09/03 02:38:46;;;;;;;2.90;1.60;;;;;;;;;;5035672;28;20021;-67
2022/09/03 02:41:12;;;;;;;4.15;1.80;;;;;;;;;;5035303;28;20036;-68
2022/09/03 02:43:44;;;;;;;4.20;1.73;;;;;;;;;;5045850;28;20044;-64
2022/09/03 02:46:16;;;;;;;4.75;1.80;;;;;;;;;;5035029;28;20053;-67
2022/09/03 02:48:42;;;;;;;5.55;1.98;;;;;;;;;;5035270;28;20496;-69
2022/09/03 02:51:07;;;;;;;3.97;2.00;;;;;;;;;;5035064;28;20017;-69
2022/09/03 02:53:33;;;;;;;4.07;2.20;;;;;;;;;;5035082;28;20087;-68
2022/09/03 02:55:59;;;;;;;5.00;3.35;;;;;;;;;;5035168;28;20072;-69
2022/09/03 02:58:25;;;;;;;6.55;3.53;;;;;;;;;;5034949;28;20029;-68
2022/09/03 03:00:51;;;;;;;5.40;2.40;;;;;;;;;;5034718;28;20099;-66
2022/09/03 03:03:17;;;;;;;3.60;2.25;;;;;;;;;;5034660;28;20021;-68
2022/09/03 03:05:54;;;;;;;6.43;2.08;;;;;;;;;;5034857;28;20063;-66
2022/09/03 03:08:23;;;;;;;6.80;2.10;;;;;;;;;;5034805;28;20104;-68
2022/09/03 03:10:51;;;;;;;4.55;2.05;;;;;;;;;;5034733;28;20502;-65
2022/09/03 03:13:17;;;;;;;3.95;2.08;;;;;;;;;;5034562;28;20111;-66
2022/09/03 03:15:43;;;;;;;3.30;1.60;;;;;;;;;;5034457;28;20076;-68
2022/09/03 03:18:12;;;;;;;3.53;1.90;;;;;;;;;;5034567;28;20030;-67
2022/09/03 03:20:39;;;;;;;6.23;1.80;;;;;;;;;;5034432;28;20122;-65
2022/09/03 03:23:05;;;;;;;2.85;1.73;;;;;;;;;;5034148;28;20263;-67
2022/09/03 03:25:32;;;;;;;3.20;1.80;;;;;;;;;;5034516;28;20031;-69
2022/09/03 03:27:57;;;;;;;3.55;1.65;;;;;;;;;;5034303;28;20392;-68
2022/09/03 03:30:23;;;;;;;4.50;1.75;;;;;;;;;;5034146;28;20022;-64
2022/09/03 03:32:48;;;;;;;2.90;1.58;;;;;;;;;;5034234;28;20079;-65
2022/09/03 03:35:14;;;;;;;4.15;1.50;;;;;;;;;;5034051;28;20035;-67
2022/09/03 03:37:40;;;;;;;4.10;1.60;;;;;;;;;;5034048;28;20025;-67
2022/09/03 03:40:06;;;;;;;3.78;1.77;;;;;;;;;;5034259;28;20049;-67
2022/09/03 03:42:33;;;;;;;4.25;1.63;;;;;;;;;;5035280;28;20145;-65
2022/09/03 03:45:01;;;;;;;6.43;1.70;;;;;;;;;;5042638;28;20034;-66
2022/09/03 03:47:30;;;;;;;4.90;1.70;;;;;;;;;;5033958;28;20052;-67
2022/09/03 03:49:59;;;;;;;3.08;1.50;;;;;;;;;;5033937;28;20025;-66
2022/09/03 03:52:25;;;;;;;2.90;1.45;;;;;;;;;;5033713;28;20025;-68
2022/09/03 03:54:52;;;;;;;4.10;1.67;;;;;;;;;;5033795;28;20124;-66
2022/09/03 03:57:18;;;;;;;2.80;1.65;;;;;;;;;;5033466;28;20028;-67
2022/09/03 03:59:44;;;;;;;3.83;1.52;;;;;;;;;;5033713;28;20116;-66
2022/09/03 04:02:10;;;;;;;4.18;1.70;;;;;;;;;;5033580;28;20013;-65
2022/09/03 04:04:35;;;;;;;2.80;1.55;;;;;;;;;;5033329;28;20044;-67
2022/09/03 04:07:01;;;;;;;3.40;1.63;;;;;;;;;;5033379;28;20443;-67
2022/09/03 04:09:26;;;;;;;7.90;4.10;;;;;;;;;;5033310;28;20025;-66
2022/09/03 04:11:52;;;;;;;11.02;5.85;;;;;;;;;;5032944;28;20021;-69
2022/09/03 04:14:17;;;;;;;4.80;1.92;;;;;;;;;;5033241;28;20389;-68
2022/09/03 04:16:45;;;;;;;3.97;2.00;;;;;;;;;;5033340;28;20029;-68
2022/09/03 04:19:12;;;;;;;4.13;1.65;;;;;;;;;;5033338;28;20021;-69
2022/09/03 04:21:38;;;;;;;7.10;1.92;;;;;;;;;;5033205;28;20500;-66
2022/09/03 04:24:04;;;;;;;4.70;1.67;;;;;;;;;;5033152;28;20087;-68
2022/09/03 04:26:31;;;;;;;2.95;1.90;;;;;;;;;;5033106;28;20036;-67
2022/09/03 04:29:04;;;;;;;3.42;2.03;;;;;;;;;;5033062;28;20025;-67
2022/09/03 04:31:30;;;;;;;3.15;1.85;;;;;;;;;;5033010;28;20476;-69
2022/09/03 04:33:56;;;;;;;3.25;1.70;;;;;;;;;;5033026;28;20029;-68
2022/09/03 04:36:24;;;;;;;5.60;1.63;;;;;;;;;;5032957;28;20377;-65
2022/09/03 04:38:53;;;;;;;3.35;1.70;;;;;;;;;;5033086;28;20040;-66
2022/09/03 04:41:29;;;;;;;3.28;1.55;;;;;;;;;;5032758;28;20025;-65
2022/09/03 04:43:56;;;;;;;3.00;1.63;;;;;;;;;;5043487;28;20487;-66
2022/09/03 04:46:25;;;;;;;3.55;1.65;;;;;;;;;;5032857;28;20030;-63
2022/09/03 04:48:52;;;;;;;3.85;1.80;;;;;;;;;;5032902;28;20029;-67
2022/09/03 04:51:23;;;;;;;3.05;1.50;;;;;;;;;;5032856;28;20025;-64
2022/09/03 04:53:55;;;;;;;4.65;1.90;;;;;;;;;;5032033;28;20034;-68
2022/09/03 04:56:23;;;;;;;5.00;1.67;;;;;;;;;;5032652;28;20167;-67
2022/09/03 04:58:57;;;;;;;2.80;1.58;;;;;;;;;;5032864;28;20029;-67
2022/09/03 05:01:25;;;;;;;2.88;1.60;;;;;;;;;;5032811;28;20492;-65
2022/09/03 05:03:51;;;;;;;4.90;1.80;;;;;;;;;;5032746;28;20404;-68
2022/09/03 05:06:18;;;;;;;3.45;1.70;;;;;;;;;;5032670;28;20488;-68
2022/09/03 05:08:48;;;;;;;3.92;1.65;;;;;;;;;;5032724;28;20068;-63
2022/09/03 05:11:13;;;;;;;4.82;1.60;;;;;;;;;;5032180;28;20030;-63
2022/09/03 05:13:39;;;;;;;3.58;1.70;;;;;;;;;;5032703;28;20032;-64
2022/09/03 05:16:07;;;;;;;5.50;1.70;;;;;;;;;;5032638;28;20377;-68
2022/09/03 05:18:36;;;;;;;4.30;1.85;;;;;;;;;;5032643;28;20057;-66
2022/09/03 05:21:04;;;;;;;3.65;2.00;;;;;;;;;;5032608;28;20396;-67
2022/09/03 05:23:30;;;;;;;3.30;1.70;;;;;;;;;;5032570;28;20033;-68
2022/09/03 05:25:58;;;;;;;2.60;1.55;;;;;;;;;;5032177;28;20416;-65
2022/09/03 05:28:26;;;;;;;4.63;2.03;;;;;;;;;;5032567;28;20029;-67
2022/09/03 05:30:59;;;;;;;2.42;1.30;;;;;;;;;;5032569;28;20021;-67
2022/09/03 05:33:25;;;;;;;4.20;1.63;;;;;;;;;;5031009;28;20025;-65
2022/09/03 05:35:52;;;;;;;4.05;1.67;;;;;;;;;;5032381;28;20056;-67
2022/09/03 05:38:18;;;;;;;3.13;1.50;;;;;;;;;;5032495;28;20051;-67
2022/09/03 05:40:43;;;;;;;3.15;1.80;;;;;;;;;;5031890;28;20109;-65
2022/09/03 05:43:09;;;;;;;5.50;1.70;;;;;;;;;;5038821;28;20041;-65
2022/09/03 05:45:35;;;;;;;8.38;1.88;;;;;;;;;;5036179;28;20091;-68
2022/09/03 05:48:01;;;;;;;5.10;1.63;;;;;;;;;;5032077;28;20075;-67
2022/09/03 05:50:26;;;;;;;3.97;1.70;;;;;;;;;;5032182;28;20029;-63
2022/09/03 05:52:52;;;;;;;3.80;1.73;;;;;;;;;;5032191;28;20028;-65
2022/09/03 05:55:18;;;;;;;5.25;1.70;;;;;;;;;;5031903;28;20021;-68
2022/09/03 05:57:44;;;;;;;5.75;2.10;;;;;;;;;;5032119;28;20034;-65
2022/09/03 06:00:10;;;;;;;3.63;1.52;;;;;;;;;;5032080;28;20385;-68
2022/09/03 06:02:36;;;;;;;4.97;1.98;;;;;;;;;;5032072;28;20029;-65
2022/09/03 06:05:02;;;;;;;9.13;1.60;;;;;;;;;;5033408;28;20029;-63
2022/09/03 06:07:28;;;;;;;4.07;1.73;;;;;;;;;;5035744;28;20557;-67
2022/09/03 06:09:53;;;;;;;2.75;1.48;;;;;;;;;;5035744;28;20033;-67
2022/09/03 06:12:19;;;;;;;3.30;1.35;;;;;;;;;;5035660;28;20377;-64
2022/09/03 06:14:44;;;;;;;8.07;1.70;;;;;;;;;;5035695;28;20417;-67
2022/09/03 06:17:11;;;;;;;5.50;1.60;;;;;;;;;;5035659;28;20075;-66
2022/09/03 06:19:37;;;;;;;4.45;1.70;;;;;;;;;;5035653;28;20427;-67
2022/09/03 06:22:03;;;;;;;4.80;1.80;;;;;;;;;;5035545;28;20053;-68
2022/09/03 06:24:28;;;;;;;4.00;1.50;;;;;;;;;;5035216;28;20182;-64
2022/09/03 06:26:57;;;;;;;2.70;1.40;;;;;;;;;;5035416;28;20078;-65
2022/09/03 06:29:22;;;;;;;4.50;1.67;;;;;;;;;;5035410;28;20026;-64
2022/09/03 06:31:49;;;;;;;6.22;3.40;;;;;;;;;;5035348;28;20067;-66
2022/09/03 06:34:17;;;;;;;7.07;1.73;;;;;;;;;;5035260;28;20108;-63
2022/09/03 06:36:43;;;;;;;6.50;1.48;;;;;;;;;;5035029;28;20507;-64
2022/09/03 06:39:09;;;;;;;5.38;1.60;;;;;;;;;;5035323;28;20026;-66
2022/09/03 06:41:35;;;;;;;8.63;1.67;;;;;;;;;;5035365;28;20116;-64
2022/09/03 06:44:03;;;;;;;4.03;1.60;;;;;;;;;;5045969;28;20095;-65
2022/09/03 06:46:34;;;;;;;6.00;1.73;;;;;;;;;;5035141;28;20029;-67
2022/09/03 06:49:01;;;;;;;2.25;1.50;;;;;;;;;;5035154;28;20079;-64
2022/09/03 06:51:29;;;;;;;3.47;1.30;;;;;;;;;;5034817;28;20061;-63
2022/09/03 06:53:59;;;;;;;3.13;1.50;;;;;;;;;;5035191;28;20393;-67
2022/09/03 06:56:25;;;;;;;3.35;1.40;;;;;;;;;;5034956;28;20035;-64
2022/09/03 06:58:53;;;;;;;2.78;1.40;;;;;;;;;;5034901;28;20022;-63
2022/09/03 07:01:22;;;;;;;2.42;1.45;;;;;;;;;;5034801;28;20074;-65
2022/09/03 07:03:54;;;;;;;2.20;1.30;;;;;;;;;;5034856;28;20395;-65
2022/09/03 07:06:21;;;;;;;5.75;1.52;;;;;;;;;;5034445;28;20022;-64
2022/09/03 07:08:46;;;;;;;2.53;1.58;;;;;;;;;;5034762;28;20079;-67
2022/09/03 07:11:18;;;;;;;7.18;1.80;;;;;;;;;;5034556;28;20380;-65
2022/09/03 07:13:46;;;;;;;4.38;1.40;;;;;;;;;;5034695;28;20075;-63
2022/09/03 07:16:15;;;;;;;2.47;1.35;;;;;;;;;;5034084;28;20056;-67
2022/09/03 07:18:42;;;;;;;3.22;1.60;;;;;;;;;;5034390;28;20427;-67
2022/09/03 07:21:25;;;;;;;3.80;1.20;;;;;;;;;;5034307;28;20033;-68
2022/09/03 07:23:52;;;;;;;5.30;1.42;;;;;;;;;;5034554;28;20048;-66
2022/09/03 07:26:23;;;;;;;2.72;1.30;;;;;;;;;;5034417;28;20030;-67
2022/09/03 07:28:49;;;;;;;7.72;1.60;;;;;;;;;;5034430;28;20108;-66
2022/09/03 07:31:24;;;;;;;5.13;1.27;;;;;;;;;;5034187;28;20026;-67
2022/09/03 07:33:57;;;;;;;8.60;1.58;;;;;;;;;;5034225;28;20036;-68
2022/09/03 07:36:25;;;;;;;7.53;1.70;;;;;;;;;;5033801;28;20033;-64
2022/09/03 07:38:57;;;;;;;5.57;1.67;;;;;;;;;;5034052;28;20057;-63
2022/09/03 07:41:24;;;;;;;3.85;1.20;;;;;;;;;;5034189;28;20544;-64
2022/09/03 07:43:51;;;;;;;3.72;1.40;;;;;;;;;;5044452;28;20488;-64
2022/09/03 07:46:22;;;;;;;3.85;1.48;;;;;;;;;;5033630;28;20030;-63
2022/09/03 07:48:58;;;;;;;2.65;1.15;;;;;;;;;;5033913;28;20488;-64
2022/09/03 07:51:30;;;;;;;1.88;1.10;;;;;;;;;;5033690;28;20544;-67
2022/09/03 07:53:58;;;;;;;2.92;1.23;;;;;;;;;;5033951;28;20041;-65
2022/09/03 07:56:25;;;;;;;2.53;1.10;;;;;;;;;;5033897;28;20029;-66
2022/09/03 07:58:51;;;;;;;2.80;1.10;;;;;;;;;;5033864;28;20021;-64
2022/09/03 08:01:20;;;;;;;3.45;1.42;;;;;;;;;;5033490;28;20507;-67
2022/09/03 08:03:49;;;;;;;2.65;1.42;;;;;;;;;;5033530;28;20508;-64
2022/09/03 08:06:17;;;;;;;2.38;1.02;;;;;;;;;;5033622;28;20427;-64
2022/09/03 08:08:46;;;;;;;2.47;0.93;;;;;;;;;;5033451;28;20087;-64
2022/09/03 08:11:18;;;;;;;4.85;1.30;;;;;;;;;;5033624;28;20017;-68
2022/09/03 08:13:45;;;;;;;1.70;0.90;;;;;;;;;;5033521;28;20440;-66
2022/09/03 08:16:17;;;;;;;3.50;1.30;;;;;;;;;;5033481;28;20025;-65
2022/09/03 08:18:42;;;;;;;11.82;1.85;;;;;;;;;;5033294;28;20107;-66
2022/09/03 08:21:18;;;;;;;3.83;1.20;;;;;;;;;;5033418;28;20048;-64
2022/09/03 08:23:49;;;;;;;6.00;2.83;;;;;;;;;;5033301;28;20041;-65
2022/09/03 08:26:16;;;;;;;2.95;1.35;;;;;;;;;;5033375;28;20026;-67
2022/09/03 08:28:42;;;;;;;2.55;1.00;;;;;;;;;;5033329;28;20033;-64
2022/09/03 08:31:22;;;;;;;7.13;3.22;;;;;;;;;;5033263;28;20026;-65
2022/09/03 08:33:50;;;;;;;2.65;1.50;;;;;;;;;;5032857;28;20076;-68
2022/09/03 08:36:17;;;;;;;1.55;0.90;;;;;;;;;;5033014;28;20042;-64
2022/09/03 08:38:45;;;;;;;4.10;1.20;;;;;;;;;;5033147;28;20022;-64
2022/09/03 08:41:21;;;;;;;1.98;1.25;;;;;;;;;;5032899;28;20079;-64
2022/09/03 08:44:11;;;;;;;6.00;1.42;;;;;;;;;;5043749;28;20045;-66
2022/09/03 08:47:07;;;;;;;1.73;1.13;;;;;;;;;;5032586;28;20037;-67
2022/09/03 08:50:01;;;;;;;6.55;1.27;;;;;;;;;;5033011;28;20148;-64
2022/09/03 08:52:48;;;;;;;3.25;1.17;;;;;;;;;;5032707;28;20550;-67
2022/09/03 08:55:28;;;;;;;2.88;1.10;;;;;;;;;;5032962;28;20100;-63
2022/09/03 08:58:15;;;;;;;1.65;0.90;;;;;;;;;;5032907;28;20083;-64
2022/09/03 09:01:01;;;;;;;4.82;1.20;;;;;;;;;;5032894;28;20034;-66
2022/09/03 09:03:33;;;;;;;2.60;1.00;;;;;;;;;;5032561;28;20029;-65
2022/09/03 09:06:17;;;;;;;2.40;0.82;;;;;;;;;;5032569;28;20021;-63
2022/09/03 09:08:58;;;;;;;3.95;1.00;;;;;;;;;;5032811;28;20034;-68
2022/09/03 09:11:57;;;;;;;3.38;1.00;;;;;;;;;;5032443;28;20057;-65
2022/09/03 09:14:42;;;;;;;2.78;1.10;;;;;;;;;;5031200;28;20041;-64
2022/09/03 09:17:34;;;;;;;1.10;1.00;;;;;;;;;;5032460;28;20018;-67
2022/09/03 09:20:17;;;;;;;2.85;0.95;;;;;;;;;;5032695;28;20021;-65
2022/09/03 09:22:51;;;;;;;2.55;1.10;;;;;;;;;;5032546;28;20053;-66
2022/09/03 09:25:23;;;;;;;1.92;1.10;;;;;;;;;;5032598;28;20037;-63
2022/09/03 09:27:55;;;;;;;2.65;1.00;;;;;;;;;;5031952;28;20026;-65
2022/09/03 09:30:20;;;;;;;0.90;0.80;;;;;;;;;;5032590;28;20388;-64
2022/09/03 09:32:46;;;;;;;3.05;1.00;;;;;;;;;;5032212;28;20018;-68
2022/09/03 09:35:14;;;;;;;2.45;1.00;;;;;;;;;;5032526;28;20029;-66
2022/09/03 09:37:46;;;;;;;4.50;0.93;;;;;;;;;;5032175;28;20554;-65
2022/09/03 09:40:24;;;;;;;3.97;0.93;;;;;;;;;;5033936;28;20583;-64
2022/09/03 09:42:51;;;;;;;4.32;1.25;;;;;;;;;;5040382;28;20057;-63
2022/09/03 09:45:18;;;;;;;5.75;1.20;;;;;;;;;;5042372;28;20021;-68
2022/09/03 09:47:45;;;;;;;1.00;0.90;;;;;;;;;;5036156;28;20037;-64
2022/09/03 09:50:19;;;;;;;1.58;0.90;;;;;;;;;;5036183;28;20105;-65
2022/09/03 09:52:45;;;;;;;3.03;0.95;;;;;;;;;;5036247;28;20381;-64
2022/09/03 09:55:17;;;;;;;2.05;0.93;;;;;;;;;;5036245;28;20036;-64
2022/09/03 09:57:43;;;;;;;2.60;0.88;;;;;;;;;;5036212;28;20428;-65
2022/09/03 10:00:15;;;;;;;4.70;1.20;;;;;;;;;;5035935;28;20021;-67
2022/09/03 10:02:53;;;;;;;8.80;1.17;;;;;;;;;;5035793;28;20029;-66
2022/09/03 10:05:27;;;;;;;3.50;0.85;;;;;;;;;;5035769;28;20036;-64
2022/09/03 10:07:56;;;;;;;2.65;1.00;;;;;;;;;;5035420;28;20180;-63
2022/09/03 10:10:23;;;;;;;3.42;0.90;;;;;;;;;;5035823;28;20431;-65
2022/09/03 10:13:17;;;;;;;1.50;0.93;;;;;;;;;;5035723;28;20061;-62
2022/09/03 10:16:03;;;;;;;3.53;0.98;;;;;;;;;;5035497;28;20030;-62
2022/09/03 10:18:55;;;;;;;11.98;1.75;;;;;;;;;;5035681;28;20379;-64
2022/09/03 10:21:33;;;;;;;2.65;0.80;;;;;;;;;;5035730;28;20036;-63
2022/09/03 10:24:14;;;;;;;1.42;0.90;;;;;;;;;;5035682;28;20502;-63
2022/09/03 10:26:44;;;;;;;3.28;0.98;;;;;;;;;;5035609;28;20396;-63
2022/09/03 10:29:15;;;;;;;1.20;0.70;;;;;;;;;;5035180;28;20038;-62
2022/09/03 10:32:09;;;;;;;2.13;0.90;;;;;;;;;;5035461;28;20492;-62
2022/09/03 10:35:09;;;;;;;5.88;1.10;;;;;;;;;;5035548;28;20041;-61
2022/09/03 10:37:40;;;;;;;;;;;;;;;;;;5035007;28;20508;-62
2022/09/03 10:40:12;;;;;;;5.00;1.02;;;;;;;;;;5035254;28;19920;-62
2022/09/03 10:42:56;;;;;;;5.53;1.25;;;;;;;;;;5037446;28;20505;-62
2022/09/03 10:45:44;;;;;;;6.72;1.20;;;;;;;;;;5039041;28;20416;-64
2022/09/03 10:48:19;;;;;;;2.15;0.90;;;;;;;;;;5033938;28;20431;-62
2022/09/03 10:50:52;;;;;;;2.80;0.90;;;;;;;;;;5034737;28;20021;-62
2022/09/03 10:53:32;;;;;;;1.73;0.75;;;;;;;;;;5034416;28;20025;-64
2022/09/03 10:56:05;;;;;;;2.35;0.90;;;;;;;;;;5035059;28;20354;-63
2022/09/03 10:58:37;;;;;;;2.33;1.10;;;;;;;;;;5034698;28;20040;-65
2022/09/03 11:01:17;;;;;;;6.45;1.10;;;;;;;;;;5034851;28;20079;-65
2022/09/03 11:03:52;;;;;;;4.38;1.00;;;;;;;;;;5034900;28;20029;-64
2022/09/03 11:06:27;;;;;;;2.78;0.70;;;;;;;;;;5034629;28;20030;-65
2022/09/03 11:09:11;;;;;;;0.73;0.60;;;;;;;;;;5034869;28;20032;-62
2022/09/03 11:11:48;;;;;;;1.80;1.00;;;;;;;;;;5034808;28;20101;-65
2022/09/03 11:14:24;;;;;;;1.77;0.75;;;;;;;;;;5034625;28;20358;-64
2022/09/03 11:16:58;;;;;;;4.43;1.02;;;;;;;;;;5034612;28;20026;-64
2022/09/03 11:19:47;;;;;;;5.68;1.30;;;;;;;;;;5034787;28;20108;-65
2022/09/03 11:22:15;;;;;;;1.77;0.65;;;;;;;;;;5034346;28;20092;-63
2022/09/03 11:24:41;;;;;;;2.40;1.10;;;;;;;;;;5034445;28;20440;-64
2022/09/03 11:27:25;;;;;;;1.83;0.80;;;;;;;;;;5034071;28;20361;-63
2022/09/03 11:29:59;;;;;;;6.68;1.10;;;;;;;;;;5034457;28;20116;-62
2022/09/03 11:32:29;;;;;;;3.47;0.88;;;;;;;;;;5034200;28;20385;-66
2022/09/03 11:34:55;;;;;;;1.55;1.00;;;;;;;;;;5034324;28;20025;-62
2022/09/03 11:37:26;;;;;;;6.80;1.10;;;;;;;;;;5033952;28;20510;-62
2022/09/03 11:40:10;;;;;;;3.95;0.95;;;;;;;;;;5033964;28;20381;-62
2022/09/03 11:42:41;;;;;;;2.05;0.90;;;;;;;;;;5035992;28;20084;-62
2022/09/03 11:45:25;;;;;;;;;;;;;;;;;;5042333;28;20033;-62
2022/09/03 11:47:50;;;;;;;2.88;0.70;;;;;;;;;;5033833;28;19913;-66
2022/09/03 11:50:25;;;;;;;1.83;0.85;;;;;;;;;;5032437;28;20358;-61
2022/09/03 11:53:07;;;;;;;0.98;0.60;;;;;;;;;;5033937;28;20101;-62
2022/09/03 11:55:54;;;;;;;1.58;0.68;;;;;;;;;;5034062;28;20032;-62
2022/09/03 11:58:52;;;;;;;2.88;1.15;;;;;;;;;;5033895;28;20060;-63
2022/09/03 12:01:17;;;;;;;2.58;0.70;;;;;;;;;;5033448;28;20033;-62
2022/09/03 12:03:49;;;;;;;1.75;0.60;;;;;;;;;;5033351;28;20095;-63
2022/09/03 12:06:42;;;;;;;1.08;0.75;;;;;;;;;;5033613;28;20040;-61
2022/09/03 12:09:22;;;;;;;2.85;1.20;;;;;;;;;;5033696;28;20018;-64
2022/09/03 12:11:47;;;;;;;;;;;;;;;;;;5033690;28;20025;-68
2022/09/03 12:14:31;;;;;;;2.45;0.77;;;;;;;;;;5033445;28;20099;-62
2022/09/03 12:17:03;;;;;;;3.55;1.00;;;;;;;;;;5033406;28;20021;-64
2022/09/03 12:19:31;;;;;;;2.58;0.85;;;;;;;;;;5033301;28;20465;-63
2022/09/03 12:21:57;;;;;;;3.25;0.95;;;;;;;;;;5033418;28;20037;-62
2022/09/03 12:24:34;;;;;;;3.42;1.00;;;;;;;;;;5033380;28;20075;-62
2022/09/03 12:27:01;;;;;;;1.85;0.80;;;;;;;;;;5032960;28;20025;-62
2022/09/03 12:29:29;;;;;;;2.30;1.10;;;;;;;;;;5033373;28;20048;-63
2022/09/03 12:32:04;;;;;;;1.77;0.93;;;;;;;;;;5033155;28;20029;-64
2022/09/03 12:34:31;;;;;;;3.20;1.15;;;;;;;;;;5033251;28;20365;-64
2022/09/03 12:36:56;;;;;;;4.38;0.90;;;;;;;;;;5033189;28;20445;-61
2022/09/03 12:39:23;;;;;;;0.88;0.60;;;;;;;;;;5032844;28;20053;-63
2022/09/03 12:41:54;;;;;;;1.35;0.88;;;;;;;;;;5033049;28;20476;-61
2022/09/03 12:44:28;;;;;;;3.03;0.98;;;;;;;;;;5043697;28;20052;-61
2022/09/03 12:47:02;;;;;;;4.72;1.60;;;;;;;;;;5032846;28;20025;-62
2022/09/03 12:49:34;;;;;;;1.55;1.05;;;;;;;;;;5033004;28;20100;-62
2022/09/03 12:52:05;;;;;;;3.78;0.90;;;;;;;;;;5032996;28;20068;-62
2022/09/03 12:54:31;;;;;;;1.67;0.63;;;;;;;;;;5032841;28;20052;-62
2022/09/03 12:56:59;;;;;;;3.13;1.00;;;;;;;;;;5032936;28;20045;-62
2022/09/03 12:59:30;;;;;;;2.17;0.80;;;;;;;;;;5032594;28;20029;-63
2022/09/03 13:02:03;;;;;;;1.40;1.00;;;;;;;;;;5032440;28;20069;-63
2022/09/03 13:04:33;;;;;;;4.18;0.82;;;;;;;;;;5032784;28;20017;-61
2022/09/03 13:07:12;;;;;;;1.90;0.98;;;;;;;;;;5032418;28;20029;-63
2022/09/03 13:09:39;;;;;;;1.47;0.80;;;;;;;;;;5032658;28;20033;-62
2022/09/03 13:12:06;;;;;;;2.55;0.90;;;;;;;;;;5032694;28;20021;-62
2022/09/03 13:14:46;;;;;;;2.10;0.98;;;;;;;;;;5031694;28;20029;-62
2022/09/03 13:17:49;;;;;;;0.73;0.60;;;;;;;;;;5032582;28;20481;-63
2022/09/03 13:20:28;;;;;;;2.55;0.70;;;;;;;;;;5032598;28;20030;-63
2022/09/03 13:23:28;;;;;;;5.55;1.25;;;;;;;;;;5032440;28;20097;-62
2022/09/03 13:26:04;;;;;;;3.75;0.90;;;;;;;;;;5032366;28;20025;-63
2022/09/03 13:29:11;;;;;;;2.97;1.00;;;;;;;;;;5032026;28;20374;-64
2022/09/03 13:31:49;;;;;;;4.38;0.80;;;;;;;;;;5032159;28;20064;-63
2022/09/03 13:34:36;;;;;;;3.58;1.20;;;;;;;;;;5032486;28;20026;-64
2022/09/03 13:37:33;;;;;;;1.75;0.80;;;;;;;;;;5032534;28;20057;-63
2022/09/03 13:40:17;;;;;;;3.58;0.90;;;;;;;;;;5032439;28;20492;-63
2022/09/03 13:42:55;;;;;;;4.15;1.10;;;;;;;;;;5035302;28;20456;-63
2022/09/03 13:45:49;;;;;;;2.88;1.10;;;;;;;;;;5024392;28;20092;-63
2022/09/03 13:51:24;;;;;;;1.45;0.70;;;;;;;;;;5012557;28;20439;-63
2022/09/03 13:54:01;;;;;;;4.00;0.98;;;;;;;;;;5012404;28;20057;-69
2022/09/03 13:56:57;;;;;;;3.10;1.60;;;;;;;;;;5012573;28;20033;-66
2022/09/03 13:59:47;;;;;;;1.80;0.80;;;;;;;;;;5012359;28;20026;-65
2022/09/03 14:02:27;;;;;;;2.75;1.60;;;;;;;;;;5012437;28;20022;-66
2022/09/03 14:05:15;;;;;;;1.65;0.70;;;;;;;;;;5012655;28;20026;-65
2022/09/03 14:08:19;;;;;;;1.75;0.65;;;;;;;;;;5012040;28;20034;-64
2022/09/03 14:10:44;;;;;;;3.20;0.80;;;;;;;;;;4971302;28;20142;-68
2022/09/03 14:13:27;;;;;;;2.08;0.80;;;;;;;;;;4971122;28;20496;-67
2022/09/03 14:16:24;;;;;;;1.27;0.70;;;;;;;;;;4971440;28;20034;-65
2022/09/03 14:19:18;;;;;;;2.25;0.80;;;;;;;;;;4894905;29;20069;-64
2022/09/03 14:21:51;;;;;;;2.45;0.88;;;;;;;;;;4894815;29;20032;-66
2022/09/03 14:24:35;;;;;;;1.52;0.93;;;;;;;;;;4895062;29;20451;-63
2022/09/03 14:27:03;;;;;;;3.92;1.00;;;;;;;;;;4897036;29;20045;-66
2022/09/03 14:29:31;;;;;;;2.10;1.00;;;;;;;;;;4898271;29;20093;-64
2022/09/03 14:32:03;;;;;;;2.90;1.00;;;;;;;;;;4897925;29;20032;-65
2022/09/03 14:34:37;;;;;;;2.03;0.95;;;;;;;;;;4898292;29;20396;-64
2022/09/03 14:37:12;;;;;;;3.15;0.90;;;;;;;;;;4897940;29;20046;-63
2022/09/03 14:39:49;;;;;;;1.30;0.80;;;;;;;;;;4898150;29;20048;-64
2022/09/03 14:42:36;;;;;;;2.92;0.93;;;;;;;;;;4897940;29;20484;-66
2022/09/03 14:45:07;;;;;;;3.50;0.80;;;;;;;;;;4897975;28;20444;-63
2022/09/03 14:48:00;;;;;;;3.10;0.77;;;;;;;;;;4974458;28;20457;-65
2022/09/03 14:51:03;;;;;;;3.85;0.80;;;;;;;;;;4974019;28;20426;-66
2022/09/03 14:53:46;;;;;;;2.67;1.02;;;;;;;;;;4974330;28;20030;-64
2022/09/03 14:56:21;;;;;;;2.40;0.57;;;;;;;;;;5005928;28;20042;-64
2022/09/03 14:59:13;;;;;;;2.42;0.98;;;;;;;;;;5015336;28;20061;-67
2022/09/03 15:01:40;;;;;;;3.75;0.90;;;;;;;;;;5015065;28;20073;-64
2022/09/03 15:04:11;;;;;;;1.63;0.90;;;;;;;;;;5015095;28;20037;-65
2022/09/03 15:06:57;;;;;;;2.33;0.70;;;;;;;;;;5015064;28;20030;-63
2022/09/03 15:09:51;;;;;;;3.03;0.63;;;;;;;;;;5014945;28;20021;-64
2022/09/03 15:12:47;;;;;;;3.22;0.80;;;;;;;;;;5014743;28;20056;-65
2022/09/03 15:15:18;;;;;;;2.05;0.90;;;;;;;;;;5014939;28;20100;-65
2022/09/03 15:18:28;;;;;;;3.63;1.10;;;;;;;;;;5014756;28;20068;-63
2022/09/03 15:21:07;;;;;;;2.65;0.98;;;;;;;;;;4954021;29;20035;-64
2022/09/03 15:23:56;;;;;;;1.95;1.10;;;;;;;;;;4954268;29;20035;-69
2022/09/03 15:26:40;;;;;;;2.00;1.10;;;;;;;;;;4954077;29;20039;-67